sensor_id;sensor_type;location;lat;lon;timestamp;temperature;humidity
10678;DHT22;5387;48.722;9.110;2023-05-16T00:02:18;11.40;99.90
10678;DHT22;5387;48.722;9.110;2023-05-16T00:04:46;11.40;99.90
10678;DHT22;5387;48.722;9.110;2023-05-16T00:07:14;11.50;99.90
10678;DHT22;5387;48.722;9.110;2023-05-16T00:09:41;11.40;99.90
10678;DHT22;5387;48.722;9.110;2023-05-16T00:12:08;11.40;99.90
10678;DHT22;5387;48.722;9.110;2023-05-16T00:14:35;11.40;99.90
10678;DHT22;5387;48.722;9.110;2023-05-16T00:17:03;11.40;99.90
10678;DHT22;5387;48.722;9.110;2023-05-16T00:19:36;11.30;99.90
10678;DHT22;5387;48.722;9.110;2023-05-16T00:22:03;11.40;99.90
10678;DHT22;5387;48.722;9.110;2023-05-16T00:24:32;11.40;99.90
10678;DHT22;5387;48.722;9.110;2023-05-16T00:26:59;11.40;99.90
10678;DHT22;5387;48.722;9.110;2023-05-16T00:29:26;11.40;99.90
10678;DHT22;5387;48.722;9.110;2023-05-16T00:31:52;11.40;99.90
10678;DHT22;5387;48.722;9.110;2023-05-16T00:34:20;11.40;99.90
10678;DHT22;5387;48.722;9.110;2023-05-16T00:36:48;11.40;99.90
10678;DHT22;5387;48.722;9.110;2023-05-16T00:39:15;11.30;99.90
10678;DHT22;5387;48.722;9.110;2023-05-16T00:41:43;11.30;99.90
10678;DHT22;5387;48.722;9.110;2023-05-16T00:44:11;11.40;99.90
10678;DHT22;5387;48.722;9.110;2023-05-16T00:46:37;11.40;99.90
10678;DHT22;5387;48.722;9.110;2023-05-16T00:49:04;11.30;99.90
10678;DHT22;5387;48.722;9.110;2023-05-16T00:51:31;11.20;99.90
10678;DHT22;5387;48.722;9.110;2023-05-16T00:53:58;11.30;99.90
10678;DHT22;5387;48.722;9.110;2023-05-16T00:56:25;11.30;99.90
10678;DHT22;5387;48.722;9.110;2023-05-16T00:58:54;11.20;99.90
10678;DHT22;5387;48.722;9.110;2023-05-16T01:01:22;11.20;99.90
10678;DHT22;5387;48.722;9.110;2023-05-16T01:03:50;11.20;99.90
10678;DHT22;5387;48.722;9.110;2023-05-16T01:06:18;11.20;99.90
10678;DHT22;5387;48.722;9.110;2023-05-16T01:08:44;11.10;99.90
10678;DHT22;5387;48.722;9.110;2023-05-16T01:11:26;11.10;99.90
10678;DHT22;5387;48.722;9.110;2023-05-16T01:14:05;11.00;99.90
10678;DHT22;5387;48.722;9.110;2023-05-16T01:16:39;11.00;99.90
10678;DHT22;5387;48.722;9.110;2023-05-16T01:19:16;10.90;99.90
10678;DHT22;5387;48.722;9.110;2023-05-16T01:21:48;10.90;99.90
10678;DHT22;5387;48.722;9.110;2023-05-16T01:24:26;10.80;99.90
10678;DHT22;5387;48.722;9.110;2023-05-16T01:26:59;10.80;99.90
10678;DHT22;5387;48.722;9.110;2023-05-16T01:29:26;10.80;99.90
10678;DHT22;5387;48.722;9.110;2023-05-16T01:31:53;10.70;99.90
10678;DHT22;5387;48.722;9.110;2023-05-16T01:34:19;10.60;99.90
10678;DHT22;5387;48.722;9.110;2023-05-16T01:36:50;10.70;99.90
10678;DHT22;5387;48.722;9.110;2023-05-16T01:39:23;10.80;99.90
10678;DHT22;5387;48.722;9.110;2023-05-16T01:41:56;10.60;99.90
10678;DHT22;5387;48.722;9.110;2023-05-16T01:44:31;10.60;99.90
10678;DHT22;5387;48.722;9.110;2023-05-16T01:47:01;10.60;99.90
10678;DHT22;5387;48.722;9.110;2023-05-16T01:49:34;10.50;99.90
10678;DHT22;5387;48.722;9.110;2023-05-16T01:52:05;10.50;99.90
10678;DHT22;5387;48.722;9.110;2023-05-16T01:54:37;10.40;99.90
10678;DHT22;5387;48.722;9.110;2023-05-16T01:57:06;10.40;99.90
10678;DHT22;5387;48.722;9.110;2023-05-16T01:59:36;10.40;99.90
10678;DHT22;5387;48.722;9.110;2023-05-16T02:02:04;10.30;99.90
10678;DHT22;5387;48.722;9.110;2023-05-16T02:04:31;10.30;99.90
10678;DHT22;5387;48.722;9.110;2023-05-16T02:06:58;10.30;99.90
10678;DHT22;5387;48.722;9.110;2023-05-16T02:09:26;10.50;99.90
10678;DHT22;5387;48.722;9.110;2023-05-16T02:11:53;10.20;99.90
10678;DHT22;5387;48.722;9.110;2023-05-16T02:14:20;10.20;99.90
10678;DHT22;5387;48.722;9.110;2023-05-16T02:16:48;10.20;99.90
10678;DHT22;5387;48.722;9.110;2023-05-16T02:19:15;10.20;99.90
10678;DHT22;5387;48.722;9.110;2023-05-16T02:21:42;10.20;99.90
10678;DHT22;5387;48.722;9.110;2023-05-16T02:24:09;10.20;99.90
10678;DHT22;5387;48.722;9.110;2023-05-16T02:26:35;10.20;99.90
10678;DHT22;5387;48.722;9.110;2023-05-16T02:29:02;10.20;99.90
10678;DHT22;5387;48.722;9.110;2023-05-16T02:31:32;10.20;99.90
10678;DHT22;5387;48.722;9.110;2023-05-16T02:34:01;10.20;99.90
10678;DHT22;5387;48.722;9.110;2023-05-16T02:36:28;10.20;99.90
10678;DHT22;5387;48.722;9.110;2023-05-16T02:38:55;10.20;99.90
10678;DHT22;5387;48.722;9.110;2023-05-16T02:41:22;10.20;99.90
10678;DHT22;5387;48.722;9.110;2023-05-16T02:43:48;10.20;99.90
10678;DHT22;5387;48.722;9.110;2023-05-16T02:46:23;10.20;99.90
10678;DHT22;5387;48.722;9.110;2023-05-16T02:48:50;10.20;99.90
10678;DHT22;5387;48.722;9.110;2023-05-16T02:51:19;10.10;99.90
10678;DHT22;5387;48.722;9.110;2023-05-16T02:53:47;10.10;99.90
10678;DHT22;5387;48.722;9.110;2023-05-16T02:56:14;10.10;99.90
10678;DHT22;5387;48.722;9.110;2023-05-16T02:58:41;10.10;99.90
10678;DHT22;5387;48.722;9.110;2023-05-16T03:01:07;10.10;99.90
10678;DHT22;5387;48.722;9.110;2023-05-16T03:03:35;10.00;99.90
10678;DHT22;5387;48.722;9.110;2023-05-16T03:06:02;10.10;99.90
10678;DHT22;5387;48.722;9.110;2023-05-16T03:08:30;10.00;99.90
10678;DHT22;5387;48.722;9.110;2023-05-16T03:10:57;10.10;99.90
10678;DHT22;5387;48.722;9.110;2023-05-16T03:13:24;10.10;99.90
10678;DHT22;5387;48.722;9.110;2023-05-16T03:15:51;10.10;99.90
10678;DHT22;5387;48.722;9.110;2023-05-16T03:18:18;10.10;99.90
10678;DHT22;5387;48.722;9.110;2023-05-16T03:20:45;10.10;99.90
10678;DHT22;5387;48.722;9.110;2023-05-16T03:23:12;10.10;99.90
10678;DHT22;5387;48.722;9.110;2023-05-16T03:25:40;10.10;99.90
10678;DHT22;5387;48.722;9.110;2023-05-16T03:28:08;10.00;99.90
10678;DHT22;5387;48.722;9.110;2023-05-16T03:30:34;10.00;99.90
10678;DHT22;5387;48.722;9.110;2023-05-16T03:33:01;10.00;99.90
10678;DHT22;5387;48.722;9.110;2023-05-16T03:35:30;9.90;99.90
10678;DHT22;5387;48.722;9.110;2023-05-16T03:37:57;9.90;99.90
10678;DHT22;5387;48.722;9.110;2023-05-16T03:40:24;9.80;99.90
10678;DHT22;5387;48.722;9.110;2023-05-16T03:42:52;9.80;99.90
10678;DHT22;5387;48.722;9.110;2023-05-16T03:45:19;9.80;99.90
10678;DHT22;5387;48.722;9.110;2023-05-16T03:47:47;9.80;99.90
10678;DHT22;5387;48.722;9.110;2023-05-16T03:50:15;9.70;99.90
10678;DHT22;5387;48.722;9.110;2023-05-16T03:52:42;9.70;99.90
10678;DHT22;5387;48.722;9.110;2023-05-16T03:55:09;9.70;99.90
10678;DHT22;5387;48.722;9.110;2023-05-16T03:57:38;9.70;99.90
10678;DHT22;5387;48.722;9.110;2023-05-16T04:00:09;9.70;99.90
10678;DHT22;5387;48.722;9.110;2023-05-16T04:02:37;9.70;99.90
10678;DHT22;5387;48.722;9.110;2023-05-16T04:05:06;9.80;99.90
10678;DHT22;5387;48.722;9.110;2023-05-16T04:07:33;9.70;99.90
10678;DHT22;5387;48.722;9.110;2023-05-16T04:10:00;9.70;99.90
10678;DHT22;5387;48.722;9.110;2023-05-16T04:12:27;9.70;99.90
10678;DHT22;5387;48.722;9.110;2023-05-16T04:14:53;9.80;99.90
10678;DHT22;5387;48.722;9.110;2023-05-16T04:17:22;9.80;99.90
10678;DHT22;5387;48.722;9.110;2023-05-16T04:19:48;9.80;99.90
10678;DHT22;5387;48.722;9.110;2023-05-16T04:22:15;9.90;99.90
10678;DHT22;5387;48.722;9.110;2023-05-16T04:24:42;9.90;99.90
10678;DHT22;5387;48.722;9.110;2023-05-16T04:27:09;10.00;99.90
10678;DHT22;5387;48.722;9.110;2023-05-16T04:29:36;10.00;99.90
10678;DHT22;5387;48.722;9.110;2023-05-16T04:32:04;10.00;99.90
10678;DHT22;5387;48.722;9.110;2023-05-16T04:34:33;10.10;99.90
10678;DHT22;5387;48.722;9.110;2023-05-16T04:37:02;10.00;99.90
10678;DHT22;5387;48.722;9.110;2023-05-16T04:39:29;10.10;99.90
10678;DHT22;5387;48.722;9.110;2023-05-16T04:41:56;10.10;99.90
10678;DHT22;5387;48.722;9.110;2023-05-16T04:44:23;10.10;99.90
10678;DHT22;5387;48.722;9.110;2023-05-16T04:46:50;10.10;99.90
10678;DHT22;5387;48.722;9.110;2023-05-16T04:49:17;10.10;99.90
10678;DHT22;5387;48.722;9.110;2023-05-16T04:51:46;10.20;99.90
10678;DHT22;5387;48.722;9.110;2023-05-16T04:54:13;10.20;99.90
10678;DHT22;5387;48.722;9.110;2023-05-16T04:56:39;10.30;99.90
10678;DHT22;5387;48.722;9.110;2023-05-16T04:59:06;10.30;99.90
10678;DHT22;5387;48.722;9.110;2023-05-16T05:01:33;10.30;99.90
10678;DHT22;5387;48.722;9.110;2023-05-16T05:04:00;10.20;99.90
10678;DHT22;5387;48.722;9.110;2023-05-16T05:06:26;10.30;99.90
10678;DHT22;5387;48.722;9.110;2023-05-16T05:08:55;10.40;99.90
10678;DHT22;5387;48.722;9.110;2023-05-16T05:11:21;10.40;99.90
10678;DHT22;5387;48.722;9.110;2023-05-16T05:13:48;10.40;99.90
10678;DHT22;5387;48.722;9.110;2023-05-16T05:16:15;10.30;99.90
10678;DHT22;5387;48.722;9.110;2023-05-16T05:18:42;10.30;99.90
10678;DHT22;5387;48.722;9.110;2023-05-16T05:21:10;10.40;99.90
10678;DHT22;5387;48.722;9.110;2023-05-16T05:23:36;10.40;99.90
10678;DHT22;5387;48.722;9.110;2023-05-16T05:26:05;10.30;99.90
10678;DHT22;5387;48.722;9.110;2023-05-16T05:28:31;10.40;99.90
10678;DHT22;5387;48.722;9.110;2023-05-16T05:30:58;10.40;99.90
10678;DHT22;5387;48.722;9.110;2023-05-16T05:33:26;10.40;99.90
10678;DHT22;5387;48.722;9.110;2023-05-16T05:35:53;10.60;99.90
10678;DHT22;5387;48.722;9.110;2023-05-16T05:38:20;10.60;99.90
10678;DHT22;5387;48.722;9.110;2023-05-16T05:40:47;10.60;99.90
10678;DHT22;5387;48.722;9.110;2023-05-16T05:43:16;10.70;99.90
10678;DHT22;5387;48.722;9.110;2023-05-16T05:45:43;10.60;99.90
10678;DHT22;5387;48.722;9.110;2023-05-16T05:48:10;10.70;99.90
10678;DHT22;5387;48.722;9.110;2023-05-16T05:50:38;10.70;99.90
10678;DHT22;5387;48.722;9.110;2023-05-16T05:53:05;10.60;99.90
10678;DHT22;5387;48.722;9.110;2023-05-16T05:55:31;10.50;99.90
10678;DHT22;5387;48.722;9.110;2023-05-16T05:57:58;10.60;99.90
10678;DHT22;5387;48.722;9.110;2023-05-16T06:00:26;10.50;99.90
10678;DHT22;5387;48.722;9.110;2023-05-16T06:02:54;10.50;99.90
10678;DHT22;5387;48.722;9.110;2023-05-16T06:05:21;10.60;99.90
10678;DHT22;5387;48.722;9.110;2023-05-16T06:07:48;10.60;99.90
10678;DHT22;5387;48.722;9.110;2023-05-16T06:10:15;10.60;99.90
10678;DHT22;5387;48.722;9.110;2023-05-16T06:12:41;10.60;99.90
10678;DHT22;5387;48.722;9.110;2023-05-16T06:15:09;10.60;99.90
10678;DHT22;5387;48.722;9.110;2023-05-16T06:17:37;10.70;99.90
10678;DHT22;5387;48.722;9.110;2023-05-16T06:20:05;10.70;99.90
10678;DHT22;5387;48.722;9.110;2023-05-16T06:22:32;10.70;99.90
10678;DHT22;5387;48.722;9.110;2023-05-16T06:24:59;10.90;99.90
10678;DHT22;5387;48.722;9.110;2023-05-16T06:27:26;11.00;99.90
10678;DHT22;5387;48.722;9.110;2023-05-16T06:29:53;11.00;99.90
10678;DHT22;5387;48.722;9.110;2023-05-16T06:32:20;11.00;99.90
10678;DHT22;5387;48.722;9.110;2023-05-16T06:34:48;11.00;99.90
10678;DHT22;5387;48.722;9.110;2023-05-16T06:37:15;10.80;99.90
10678;DHT22;5387;48.722;9.110;2023-05-16T06:39:42;10.80;99.90
10678;DHT22;5387;48.722;9.110;2023-05-16T06:42:08;10.90;99.90
10678;DHT22;5387;48.722;9.110;2023-05-16T06:44:37;11.00;99.90
10678;DHT22;5387;48.722;9.110;2023-05-16T06:47:04;11.10;99.90
10678;DHT22;5387;48.722;9.110;2023-05-16T06:49:31;11.20;99.90
10678;DHT22;5387;48.722;9.110;2023-05-16T06:51:59;11.30;99.90
10678;DHT22;5387;48.722;9.110;2023-05-16T06:54:26;11.50;99.90
10678;DHT22;5387;48.722;9.110;2023-05-16T06:56:53;11.50;99.90
10678;DHT22;5387;48.722;9.110;2023-05-16T06:59:20;11.50;99.90
10678;DHT22;5387;48.722;9.110;2023-05-16T07:01:47;11.40;99.90
10678;DHT22;5387;48.722;9.110;2023-05-16T07:04:13;11.30;99.90
10678;DHT22;5387;48.722;9.110;2023-05-16T07:06:40;11.20;99.90
10678;DHT22;5387;48.722;9.110;2023-05-16T07:09:09;11.10;99.90
10678;DHT22;5387;48.722;9.110;2023-05-16T07:11:36;11.10;99.90
10678;DHT22;5387;48.722;9.110;2023-05-16T07:14:02;11.00;99.90
10678;DHT22;5387;48.722;9.110;2023-05-16T07:16:29;11.10;99.90
10678;DHT22;5387;48.722;9.110;2023-05-16T07:18:56;11.10;99.90
10678;DHT22;5387;48.722;9.110;2023-05-16T07:21:23;11.10;99.90
10678;DHT22;5387;48.722;9.110;2023-05-16T07:23:49;11.10;99.90
10678;DHT22;5387;48.722;9.110;2023-05-16T07:26:18;11.10;99.90
10678;DHT22;5387;48.722;9.110;2023-05-16T07:28:48;11.20;99.90
10678;DHT22;5387;48.722;9.110;2023-05-16T07:31:14;11.20;99.90
10678;DHT22;5387;48.722;9.110;2023-05-16T07:33:42;11.10;99.90
10678;DHT22;5387;48.722;9.110;2023-05-16T07:36:10;11.10;99.90
10678;DHT22;5387;48.722;9.110;2023-05-16T07:38:36;11.10;99.90
10678;DHT22;5387;48.722;9.110;2023-05-16T07:41:03;11.00;99.90
10678;DHT22;5387;48.722;9.110;2023-05-16T07:43:32;11.00;99.90
10678;DHT22;5387;48.722;9.110;2023-05-16T07:46:00;10.90;99.90
10678;DHT22;5387;48.722;9.110;2023-05-16T07:48:27;10.90;99.90
10678;DHT22;5387;48.722;9.110;2023-05-16T07:50:53;11.00;99.90
10678;DHT22;5387;48.722;9.110;2023-05-16T07:53:21;11.00;99.90
10678;DHT22;5387;48.722;9.110;2023-05-16T07:55:48;11.20;99.90
10678;DHT22;5387;48.722;9.110;2023-05-16T07:58:15;11.30;99.90
10678;DHT22;5387;48.722;9.110;2023-05-16T08:00:43;11.20;99.90
10678;DHT22;5387;48.722;9.110;2023-05-16T08:03:10;11.00;99.90
10678;DHT22;5387;48.722;9.110;2023-05-16T08:05:36;10.90;99.90
10678;DHT22;5387;48.722;9.110;2023-05-16T08:08:04;11.40;99.90
10678;DHT22;5387;48.722;9.110;2023-05-16T08:10:30;11.30;99.90
10678;DHT22;5387;48.722;9.110;2023-05-16T08:12:57;11.20;99.90
10678;DHT22;5387;48.722;9.110;2023-05-16T08:15:26;11.20;99.90
10678;DHT22;5387;48.722;9.110;2023-05-16T08:17:56;11.10;99.90
10678;DHT22;5387;48.722;9.110;2023-05-16T08:20:23;11.00;99.90
10678;DHT22;5387;48.722;9.110;2023-05-16T08:22:51;11.10;99.90
10678;DHT22;5387;48.722;9.110;2023-05-16T08:25:18;10.80;99.90
10678;DHT22;5387;48.722;9.110;2023-05-16T08:27:45;10.90;99.90
10678;DHT22;5387;48.722;9.110;2023-05-16T08:30:12;10.90;99.90
10678;DHT22;5387;48.722;9.110;2023-05-16T08:32:39;11.00;99.90
10678;DHT22;5387;48.722;9.110;2023-05-16T08:35:08;10.80;99.90
10678;DHT22;5387;48.722;9.110;2023-05-16T08:37:35;10.80;99.90
10678;DHT22;5387;48.722;9.110;2023-05-16T08:40:04;10.80;99.90
10678;DHT22;5387;48.722;9.110;2023-05-16T08:42:33;10.60;99.90
10678;DHT22;5387;48.722;9.110;2023-05-16T08:45:00;10.70;99.90
10678;DHT22;5387;48.722;9.110;2023-05-16T08:47:30;10.70;99.90
10678;DHT22;5387;48.722;9.110;2023-05-16T08:49:59;10.90;99.90
10678;DHT22;5387;48.722;9.110;2023-05-16T08:52:30;10.90;99.90
10678;DHT22;5387;48.722;9.110;2023-05-16T08:55:01;10.90;99.90
10678;DHT22;5387;48.722;9.110;2023-05-16T08:57:30;11.00;99.90
10678;DHT22;5387;48.722;9.110;2023-05-16T08:59:58;11.00;99.90
10678;DHT22;5387;48.722;9.110;2023-05-16T09:02:25;11.00;99.90
10678;DHT22;5387;48.722;9.110;2023-05-16T09:04:53;10.90;99.90
10678;DHT22;5387;48.722;9.110;2023-05-16T09:07:22;10.90;99.90
10678;DHT22;5387;48.722;9.110;2023-05-16T09:09:50;11.00;99.90
10678;DHT22;5387;48.722;9.110;2023-05-16T09:12:19;11.00;99.90
10678;DHT22;5387;48.722;9.110;2023-05-16T09:14:46;11.00;99.90
10678;DHT22;5387;48.722;9.110;2023-05-16T09:17:13;11.20;99.90
10678;DHT22;5387;48.722;9.110;2023-05-16T09:19:41;11.10;99.90
10678;DHT22;5387;48.722;9.110;2023-05-16T09:22:10;10.80;99.90
10678;DHT22;5387;48.722;9.110;2023-05-16T09:24:38;10.80;99.90
10678;DHT22;5387;48.722;9.110;2023-05-16T09:27:10;10.80;99.90
10678;DHT22;5387;48.722;9.110;2023-05-16T09:29:39;11.00;99.90
10678;DHT22;5387;48.722;9.110;2023-05-16T09:32:11;11.20;99.90
10678;DHT22;5387;48.722;9.110;2023-05-16T09:34:42;11.30;99.90
10678;DHT22;5387;48.722;9.110;2023-05-16T09:37:10;11.30;99.90
10678;DHT22;5387;48.722;9.110;2023-05-16T09:39:39;11.30;99.90
10678;DHT22;5387;48.722;9.110;2023-05-16T09:42:11;11.30;99.90
10678;DHT22;5387;48.722;9.110;2023-05-16T09:44:38;11.40;99.90
10678;DHT22;5387;48.722;9.110;2023-05-16T09:47:05;11.40;99.90
10678;DHT22;5387;48.722;9.110;2023-05-16T09:49:32;11.50;99.90
10678;DHT22;5387;48.722;9.110;2023-05-16T09:52:00;12.00;99.90
10678;DHT22;5387;48.722;9.110;2023-05-16T09:54:30;12.40;99.90
10678;DHT22;5387;48.722;9.110;2023-05-16T09:56:58;12.50;99.90
10678;DHT22;5387;48.722;9.110;2023-05-16T09:59:29;12.20;99.90
10678;DHT22;5387;48.722;9.110;2023-05-16T10:01:57;12.50;99.90
10678;DHT22;5387;48.722;9.110;2023-05-16T10:04:24;12.30;99.90
10678;DHT22;5387;48.722;9.110;2023-05-16T10:06:52;12.10;99.90
10678;DHT22;5387;48.722;9.110;2023-05-16T10:09:21;12.00;99.90
10678;DHT22;5387;48.722;9.110;2023-05-16T10:11:49;12.30;99.90
10678;DHT22;5387;48.722;9.110;2023-05-16T10:14:17;12.20;99.90
10678;DHT22;5387;48.722;9.110;2023-05-16T10:16:47;12.20;99.90
10678;DHT22;5387;48.722;9.110;2023-05-16T10:19:15;12.30;99.90
10678;DHT22;5387;48.722;9.110;2023-05-16T10:21:47;12.40;99.90
10678;DHT22;5387;48.722;9.110;2023-05-16T10:24:22;12.80;99.90
10678;DHT22;5387;48.722;9.110;2023-05-16T10:26:52;12.60;99.90
10678;DHT22;5387;48.722;9.110;2023-05-16T10:29:19;12.70;99.90
10678;DHT22;5387;48.722;9.110;2023-05-16T10:31:49;12.90;99.90
10678;DHT22;5387;48.722;9.110;2023-05-16T10:34:17;12.90;99.90
10678;DHT22;5387;48.722;9.110;2023-05-16T10:36:44;12.90;99.90
10678;DHT22;5387;48.722;9.110;2023-05-16T10:39:12;12.80;99.90
10678;DHT22;5387;48.722;9.110;2023-05-16T10:41:40;12.60;99.90
10678;DHT22;5387;48.722;9.110;2023-05-16T10:44:12;12.10;99.90
10678;DHT22;5387;48.722;9.110;2023-05-16T10:46:40;11.90;99.90
10678;DHT22;5387;48.722;9.110;2023-05-16T10:49:22;11.60;99.90
10678;DHT22;5387;48.722;9.110;2023-05-16T10:52:06;11.30;99.90
10678;DHT22;5387;48.722;9.110;2023-05-16T10:54:37;11.40;99.90
10678;DHT22;5387;48.722;9.110;2023-05-16T10:57:06;11.30;99.90
10678;DHT22;5387;48.722;9.110;2023-05-16T10:59:40;11.10;99.90
10678;DHT22;5387;48.722;9.110;2023-05-16T11:02:24;10.90;99.90
10678;DHT22;5387;48.722;9.110;2023-05-16T11:04:55;10.80;99.90
10678;DHT22;5387;48.722;9.110;2023-05-16T11:07:24;10.70;99.90
10678;DHT22;5387;48.722;9.110;2023-05-16T11:10:08;10.50;99.90
10678;DHT22;5387;48.722;9.110;2023-05-16T11:12:52;10.40;99.90
10678;DHT22;5387;48.722;9.110;2023-05-16T11:15:22;10.30;99.90
10678;DHT22;5387;48.722;9.110;2023-05-16T11:17:50;10.40;99.90
10678;DHT22;5387;48.722;9.110;2023-05-16T11:20:30;10.40;99.90
10678;DHT22;5387;48.722;9.110;2023-05-16T11:23:22;10.40;99.90
10678;DHT22;5387;48.722;9.110;2023-05-16T11:25:52;10.30;99.90
10678;DHT22;5387;48.722;9.110;2023-05-16T11:28:20;10.30;99.90
10678;DHT22;5387;48.722;9.110;2023-05-16T11:30:48;10.20;99.90
10678;DHT22;5387;48.722;9.110;2023-05-16T11:33:16;10.20;99.90
10678;DHT22;5387;48.722;9.110;2023-05-16T11:35:59;10.10;99.90
10678;DHT22;5387;48.722;9.110;2023-05-16T11:38:28;10.20;99.90
10678;DHT22;5387;48.722;9.110;2023-05-16T11:41:01;10.10;99.90
10678;DHT22;5387;48.722;9.110;2023-05-16T11:43:28;10.10;99.90
10678;DHT22;5387;48.722;9.110;2023-05-16T11:45:55;10.10;99.90
10678;DHT22;5387;48.722;9.110;2023-05-16T11:48:23;10.10;99.90
10678;DHT22;5387;48.722;9.110;2023-05-16T11:50:51;10.20;99.90
10678;DHT22;5387;48.722;9.110;2023-05-16T11:53:19;10.20;99.90
10678;DHT22;5387;48.722;9.110;2023-05-16T11:55:47;10.10;99.90
10678;DHT22;5387;48.722;9.110;2023-05-16T11:58:17;10.20;99.90
10678;DHT22;5387;48.722;9.110;2023-05-16T12:00:47;10.20;99.90
10678;DHT22;5387;48.722;9.110;2023-05-16T12:03:14;10.20;99.90
10678;DHT22;5387;48.722;9.110;2023-05-16T12:05:50;10.20;99.90
10678;DHT22;5387;48.722;9.110;2023-05-16T12:08:18;10.20;99.90
10678;DHT22;5387;48.722;9.110;2023-05-16T12:10:47;10.20;99.90
10678;DHT22;5387;48.722;9.110;2023-05-16T12:13:15;10.30;99.90
10678;DHT22;5387;48.722;9.110;2023-05-16T12:15:42;10.30;99.90
10678;DHT22;5387;48.722;9.110;2023-05-16T12:18:09;10.30;99.90
10678;DHT22;5387;48.722;9.110;2023-05-16T12:20:36;10.30;99.90
10678;DHT22;5387;48.722;9.110;2023-05-16T12:23:09;10.30;99.90
10678;DHT22;5387;48.722;9.110;2023-05-16T12:25:36;10.30;99.90
10678;DHT22;5387;48.722;9.110;2023-05-16T12:28:08;10.40;99.90
10678;DHT22;5387;48.722;9.110;2023-05-16T12:30:39;10.40;99.90
10678;DHT22;5387;48.722;9.110;2023-05-16T12:33:08;10.40;99.90
10678;DHT22;5387;48.722;9.110;2023-05-16T12:35:38;10.60;99.90
10678;DHT22;5387;48.722;9.110;2023-05-16T12:38:07;10.80;99.90
10678;DHT22;5387;48.722;9.110;2023-05-16T12:40:35;11.00;99.90
10678;DHT22;5387;48.722;9.110;2023-05-16T12:43:04;11.20;99.90
10678;DHT22;5387;48.722;9.110;2023-05-16T12:45:32;11.40;99.90
10678;DHT22;5387;48.722;9.110;2023-05-16T12:48:03;11.60;99.90
10678;DHT22;5387;48.722;9.110;2023-05-16T12:50:32;11.60;99.90
10678;DHT22;5387;48.722;9.110;2023-05-16T12:52:59;11.50;99.90
10678;DHT22;5387;48.722;9.110;2023-05-16T12:55:27;11.40;99.90
10678;DHT22;5387;48.722;9.110;2023-05-16T12:57:54;11.70;99.90
10678;DHT22;5387;48.722;9.110;2023-05-16T13:00:22;11.80;99.90
10678;DHT22;5387;48.722;9.110;2023-05-16T13:02:49;11.50;99.90
10678;DHT22;5387;48.722;9.110;2023-05-16T13:05:16;11.30;99.90
10678;DHT22;5387;48.722;9.110;2023-05-16T13:07:43;11.10;99.90
10678;DHT22;5387;48.722;9.110;2023-05-16T13:10:10;10.80;99.90
10678;DHT22;5387;48.722;9.110;2023-05-16T13:12:40;10.60;99.90
10678;DHT22;5387;48.722;9.110;2023-05-16T13:15:08;10.50;99.90
10678;DHT22;5387;48.722;9.110;2023-05-16T13:17:36;10.30;99.90
10678;DHT22;5387;48.722;9.110;2023-05-16T13:20:04;10.40;99.90
10678;DHT22;5387;48.722;9.110;2023-05-16T13:22:33;10.50;99.90
10678;DHT22;5387;48.722;9.110;2023-05-16T13:25:00;10.20;99.90
10678;DHT22;5387;48.722;9.110;2023-05-16T13:27:27;10.20;99.90
10678;DHT22;5387;48.722;9.110;2023-05-16T13:29:55;10.00;99.90
10678;DHT22;5387;48.722;9.110;2023-05-16T13:32:22;10.00;99.90
10678;DHT22;5387;48.722;9.110;2023-05-16T13:34:49;10.00;99.90
10678;DHT22;5387;48.722;9.110;2023-05-16T13:37:16;10.10;99.90
10678;DHT22;5387;48.722;9.110;2023-05-16T13:39:43;10.00;99.90
10678;DHT22;5387;48.722;9.110;2023-05-16T13:42:10;9.90;99.90
10678;DHT22;5387;48.722;9.110;2023-05-16T13:44:37;9.90;99.90
10678;DHT22;5387;48.722;9.110;2023-05-16T13:47:05;9.90;99.90
10678;DHT22;5387;48.722;9.110;2023-05-16T13:49:32;9.80;99.90
10678;DHT22;5387;48.722;9.110;2023-05-16T13:51:59;9.80;99.90
10678;DHT22;5387;48.722;9.110;2023-05-16T13:54:26;9.90;99.90
10678;DHT22;5387;48.722;9.110;2023-05-16T13:56:53;9.90;99.90
10678;DHT22;5387;48.722;9.110;2023-05-16T13:59:20;9.90;99.90
10678;DHT22;5387;48.722;9.110;2023-05-16T14:01:46;10.10;99.90
10678;DHT22;5387;48.722;9.110;2023-05-16T14:04:15;10.00;99.90
10678;DHT22;5387;48.722;9.110;2023-05-16T14:06:41;10.10;99.90
10678;DHT22;5387;48.722;9.110;2023-05-16T14:09:08;10.10;99.90
10678;DHT22;5387;48.722;9.110;2023-05-16T14:11:35;10.10;99.90
10678;DHT22;5387;48.722;9.110;2023-05-16T14:14:02;10.10;99.90
10678;DHT22;5387;48.722;9.110;2023-05-16T14:16:29;10.10;99.90
10678;DHT22;5387;48.722;9.110;2023-05-16T14:18:57;10.10;99.90
10678;DHT22;5387;48.722;9.110;2023-05-16T14:21:25;10.10;99.90
10678;DHT22;5387;48.722;9.110;2023-05-16T14:23:52;10.10;99.90
10678;DHT22;5387;48.722;9.110;2023-05-16T14:26:19;10.20;99.90
10678;DHT22;5387;48.722;9.110;2023-05-16T14:28:49;10.20;99.90
10678;DHT22;5387;48.722;9.110;2023-05-16T14:31:16;10.30;99.90
10678;DHT22;5387;48.722;9.110;2023-05-16T14:33:43;10.40;99.90
10678;DHT22;5387;48.722;9.110;2023-05-16T14:36:10;10.50;99.90
10678;DHT22;5387;48.722;9.110;2023-05-16T14:38:38;10.40;99.90
10678;DHT22;5387;48.722;9.110;2023-05-16T14:41:06;10.40;99.90
10678;DHT22;5387;48.722;9.110;2023-05-16T14:43:32;10.50;99.90
10678;DHT22;5387;48.722;9.110;2023-05-16T14:45:59;10.50;99.90
10678;DHT22;5387;48.722;9.110;2023-05-16T14:48:26;10.50;99.90
10678;DHT22;5387;48.722;9.110;2023-05-16T14:50:53;10.50;99.90
10678;DHT22;5387;48.722;9.110;2023-05-16T14:53:20;10.60;99.90
10678;DHT22;5387;48.722;9.110;2023-05-16T14:55:48;10.80;99.90
10678;DHT22;5387;48.722;9.110;2023-05-16T14:58:15;10.80;99.90
10678;DHT22;5387;48.722;9.110;2023-05-16T15:00:42;10.80;99.90
10678;DHT22;5387;48.722;9.110;2023-05-16T15:03:09;10.80;99.90
10678;DHT22;5387;48.722;9.110;2023-05-16T15:05:35;11.00;99.90
10678;DHT22;5387;48.722;9.110;2023-05-16T15:08:02;11.10;99.90
10678;DHT22;5387;48.722;9.110;2023-05-16T15:10:29;11.00;99.90
10678;DHT22;5387;48.722;9.110;2023-05-16T15:12:57;11.00;99.90
10678;DHT22;5387;48.722;9.110;2023-05-16T15:15:24;10.90;99.90
10678;DHT22;5387;48.722;9.110;2023-05-16T15:17:51;11.00;99.90
10678;DHT22;5387;48.722;9.110;2023-05-16T15:20:19;11.10;99.90
10678;DHT22;5387;48.722;9.110;2023-05-16T15:22:46;11.20;99.90
10678;DHT22;5387;48.722;9.110;2023-05-16T15:25:13;11.10;99.90
10678;DHT22;5387;48.722;9.110;2023-05-16T15:27:40;11.30;99.90
10678;DHT22;5387;48.722;9.110;2023-05-16T15:30:10;11.60;99.90
10678;DHT22;5387;48.722;9.110;2023-05-16T15:32:37;11.80;99.90
10678;DHT22;5387;48.722;9.110;2023-05-16T15:35:04;12.00;99.90
10678;DHT22;5387;48.722;9.110;2023-05-16T15:37:31;12.00;99.90
10678;DHT22;5387;48.722;9.110;2023-05-16T15:39:58;11.90;99.90
10678;DHT22;5387;48.722;9.110;2023-05-16T15:42:25;11.60;99.90
10678;DHT22;5387;48.722;9.110;2023-05-16T15:44:52;11.60;99.90
10678;DHT22;5387;48.722;9.110;2023-05-16T15:47:20;11.50;99.90
10678;DHT22;5387;48.722;9.110;2023-05-16T15:49:47;11.30;99.90
10678;DHT22;5387;48.722;9.110;2023-05-16T15:52:13;11.10;99.90
10678;DHT22;5387;48.722;9.110;2023-05-16T15:54:40;11.10;99.90